This is the latest recevied weather packets stored in our database for station/object N9JXN-13. If no packets are shown the sender has not sent any weather packets the latest 10 day(s).
| Time | Temp. | Humidity | Pressure | Rain* | Wind** | Luminosity | Snow |
|---|---|---|---|---|---|---|---|
| 1777992863 | 10° C | 83% | 1008.5 hPa | 0 mm | - | 891 W/m² | - |
| 1777991362 | 8.33° C | 91% | 1008.7 hPa | 0 mm | - | 199 W/m² | - |
| 1777989562 | 7.78° C | 91% | 1008.8 hPa | 0.51 mm | - | 105 W/m² | - |
| 1777985963 | 7.78° C | 87% | 1009.4 hPa | 0.25 mm | - | 21 W/m² | - |
| 1777985063 | 7.78° C | 85% | 1008.7 hPa | 0.25 mm | - | 12 W/m² | - |
| 1777984762 | 7.78° C | 84% | 1008.7 hPa | 0.25 mm | - | 11 W/m² | - |
| 1777981763 | 9.44° C | 83% | 1007.9 hPa | 0 mm | - | 12 W/m² | - |
| 1777981462 | 9.44° C | 83% | 1007.9 hPa | 0 mm | - | 9 W/m² | - |
| 1777980262 | 9.44° C | 86% | 1007.2 hPa | 0 mm | - | 5 W/m² | - |
| 1777979962 | 9.44° C | 86% | 1006.7 hPa | 0.25 mm | - | 0 W/m² | - |
| 1777978763 | 9.44° C | 87% | 1006.3 hPa | 0.25 mm | - | 0 W/m² | - |
| 1777975761 | 10.56° C | 78% | 1006.1 hPa | 0 mm | - | 0 W/m² | - |
| 1777975163 | 10.56° C | 78% | 1006.2 hPa | 0 mm | - | 0 W/m² | - |
| 1777973963 | 10.56° C | 78% | 1005.3 hPa | 0 mm | - | 0 W/m² | - |
| 1777973062 | 10.56° C | 76% | 1005.6 hPa | 0 mm | - | 0 W/m² | - |
| 1777968862 | 10.56° C | 83% | 1003.9 hPa | 0 mm | - | 0 W/m² | - |
| 1777966462 | 10° C | 87% | 1003 hPa | 0 mm | - | 0 W/m² | - |
| 1777963762 | 10.56° C | 86% | 1002.5 hPa | 0 mm | - | 0 W/m² | - |
| 1777963462 | 11.11° C | 88% | 1002.4 hPa | 0 mm | - | 0 W/m² | - |
| 1777963163 | 11.11° C | 89% | 1002.5 hPa | 0 mm | - | 0 W/m² | - |
| 1777962262 | 11.11° C | 91% | 1002 hPa | 0 mm | - | 0 W/m² | - |
| 1777961963 | 11.67° C | 91% | 1002 hPa | 0 mm | - | 0 W/m² | - |
| 1777961663 | 11.67° C | 90% | 1002 hPa | 0 mm | - | 0 W/m² | - |
| 1777961062 | 11.67° C | 90% | 1001.7 hPa | 0 mm | - | 0 W/m² | - |
| 1777960762 | 11.67° C | 91% | 1001.6 hPa | 0 mm | - | 0 W/m² | - |
* Rain latest hour (hover to see other rain measurements)
** Current wind speed in m/s (hover to see current wind gust speed)